sensor_id;sensor_type;location;lat;lon;timestamp;P1;durP1;ratioP1;P2;durP2;ratioP2
37753;SDS011;23596;52.520;13.464;2022-12-18T00:00:56;108.13;;;28.20;;
37753;SDS011;23596;52.520;13.464;2022-12-18T00:03:22;115.13;;;31.90;;
37753;SDS011;23596;52.520;13.464;2022-12-18T00:05:48;98.17;;;28.20;;
37753;SDS011;23596;52.520;13.464;2022-12-18T00:08:15;97.35;;;27.55;;
37753;SDS011;23596;52.520;13.464;2022-12-18T00:10:41;96.55;;;27.15;;
37753;SDS011;23596;52.520;13.464;2022-12-18T00:13:06;110.47;;;28.48;;
37753;SDS011;23596;52.520;13.464;2022-12-18T00:15:36;94.17;;;26.30;;
37753;SDS011;23596;52.520;13.464;2022-12-18T00:18:03;83.78;;;25.20;;
37753;SDS011;23596;52.520;13.464;2022-12-18T00:20:29;98.80;;;26.05;;
37753;SDS011;23596;52.520;13.464;2022-12-18T00:22:54;100.07;;;26.33;;
37753;SDS011;23596;52.520;13.464;2022-12-18T00:25:20;102.85;;;26.73;;
37753;SDS011;23596;52.520;13.464;2022-12-18T00:27:46;103.18;;;28.17;;
37753;SDS011;23596;52.520;13.464;2022-12-18T00:30:12;97.75;;;26.55;;
37753;SDS011;23596;52.520;13.464;2022-12-18T00:32:38;96.00;;;27.60;;
37753;SDS011;23596;52.520;13.464;2022-12-18T00:35:04;94.20;;;26.83;;
37753;SDS011;23596;52.520;13.464;2022-12-18T00:37:30;97.68;;;27.35;;
37753;SDS011;23596;52.520;13.464;2022-12-18T00:39:58;100.28;;;26.33;;
37753;SDS011;23596;52.520;13.464;2022-12-18T00:42:23;103.50;;;28.00;;
37753;SDS011;23596;52.520;13.464;2022-12-18T00:45:07;88.97;;;24.67;;
37753;SDS011;23596;52.520;13.464;2022-12-18T00:47:33;99.00;;;27.83;;
37753;SDS011;23596;52.520;13.464;2022-12-18T00:49:59;82.00;;;25.00;;
37753;SDS011;23596;52.520;13.464;2022-12-18T00:52:24;83.77;;;24.17;;
37753;SDS011;23596;52.520;13.464;2022-12-18T00:54:50;80.43;;;23.90;;
37753;SDS011;23596;52.520;13.464;2022-12-18T00:57:15;85.20;;;23.73;;
37753;SDS011;23596;52.520;13.464;2022-12-18T00:59:41;79.67;;;24.87;;
37753;SDS011;23596;52.520;13.464;2022-12-18T01:02:07;95.10;;;25.83;;
37753;SDS011;23596;52.520;13.464;2022-12-18T01:04:32;90.90;;;24.77;;
37753;SDS011;23596;52.520;13.464;2022-12-18T01:06:59;103.88;;;29.10;;
37753;SDS011;23596;52.520;13.464;2022-12-18T01:09:24;102.50;;;28.10;;
37753;SDS011;23596;52.520;13.464;2022-12-18T01:11:51;113.47;;;29.73;;
37753;SDS011;23596;52.520;13.464;2022-12-18T01:14:16;99.60;;;27.60;;
37753;SDS011;23596;52.520;13.464;2022-12-18T01:16:42;96.63;;;27.73;;
37753;SDS011;23596;52.520;13.464;2022-12-18T01:19:07;103.47;;;28.30;;
37753;SDS011;23596;52.520;13.464;2022-12-18T01:21:33;113.53;;;29.90;;
37753;SDS011;23596;52.520;13.464;2022-12-18T01:23:59;94.00;;;28.30;;
37753;SDS011;23596;52.520;13.464;2022-12-18T01:26:25;102.90;;;28.83;;
37753;SDS011;23596;52.520;13.464;2022-12-18T01:28:53;107.85;;;26.85;;
37753;SDS011;23596;52.520;13.464;2022-12-18T01:33:47;98.30;;;27.30;;
37753;SDS011;23596;52.520;13.464;2022-12-18T01:36:17;97.43;;;27.70;;
37753;SDS011;23596;52.520;13.464;2022-12-18T01:38:51;103.45;;;27.25;;
37753;SDS011;23596;52.520;13.464;2022-12-18T01:41:19;101.45;;;26.10;;
37753;SDS011;23596;52.520;13.464;2022-12-18T01:43:57;107.07;;;29.13;;
37753;SDS011;23596;52.520;13.464;2022-12-18T01:46:23;107.68;;;29.13;;
37753;SDS011;23596;52.520;13.464;2022-12-18T01:48:51;111.35;;;29.77;;
37753;SDS011;23596;52.520;13.464;2022-12-18T01:51:26;113.07;;;30.23;;
37753;SDS011;23596;52.520;13.464;2022-12-18T01:53:54;120.15;;;31.67;;
37753;SDS011;23596;52.520;13.464;2022-12-18T01:56:20;113.75;;;31.67;;
37753;SDS011;23596;52.520;13.464;2022-12-18T02:01:20;144.95;;;35.78;;
37753;SDS011;23596;52.520;13.464;2022-12-18T02:03:47;142.50;;;37.67;;
37753;SDS011;23596;52.520;13.464;2022-12-18T02:06:15;153.65;;;36.63;;
37753;SDS011;23596;52.520;13.464;2022-12-18T02:25:25;174.70;;;42.78;;
37753;SDS011;23596;52.520;13.464;2022-12-18T02:28:11;168.65;;;42.00;;
37753;SDS011;23596;52.520;13.464;2022-12-18T02:30:39;183.13;;;41.55;;
37753;SDS011;23596;52.520;13.464;2022-12-18T02:33:07;189.60;;;43.17;;
37753;SDS011;23596;52.520;13.464;2022-12-18T02:35:36;198.05;;;45.30;;
37753;SDS011;23596;52.520;13.464;2022-12-18T02:38:03;183.35;;;44.25;;
37753;SDS011;23596;52.520;13.464;2022-12-18T02:40:29;166.98;;;42.88;;
37753;SDS011;23596;52.520;13.464;2022-12-18T02:42:55;184.48;;;46.05;;
37753;SDS011;23596;52.520;13.464;2022-12-18T02:45:52;191.48;;;43.67;;
37753;SDS011;23596;52.520;13.464;2022-12-18T02:48:21;180.65;;;41.65;;
37753;SDS011;23596;52.520;13.464;2022-12-18T02:53:27;189.20;;;45.90;;
37753;SDS011;23596;52.520;13.464;2022-12-18T02:56:12;164.25;;;44.00;;
37753;SDS011;23596;52.520;13.464;2022-12-18T03:04:21;139.43;;;36.17;;
37753;SDS011;23596;52.520;13.464;2022-12-18T03:06:54;166.50;;;41.67;;
37753;SDS011;23596;52.520;13.464;2022-12-18T03:09:31;151.02;;;38.55;;
37753;SDS011;23596;52.520;13.464;2022-12-18T03:17:30;139.35;;;36.20;;
37753;SDS011;23596;52.520;13.464;2022-12-18T03:19:58;149.73;;;37.53;;
37753;SDS011;23596;52.520;13.464;2022-12-18T03:22:30;146.65;;;36.85;;
37753;SDS011;23596;52.520;13.464;2022-12-18T03:25:00;135.95;;;34.10;;
37753;SDS011;23596;52.520;13.464;2022-12-18T03:27:27;141.27;;;34.20;;
37753;SDS011;23596;52.520;13.464;2022-12-18T03:30:05;129.98;;;32.47;;
37753;SDS011;23596;52.520;13.464;2022-12-18T03:32:36;108.05;;;29.30;;
37753;SDS011;23596;52.520;13.464;2022-12-18T03:35:24;106.53;;;30.00;;
37753;SDS011;23596;52.520;13.464;2022-12-18T03:37:54;108.72;;;29.05;;
37753;SDS011;23596;52.520;13.464;2022-12-18T03:40:21;102.30;;;29.50;;
37753;SDS011;23596;52.520;13.464;2022-12-18T03:43:08;120.85;;;31.52;;
37753;SDS011;23596;52.520;13.464;2022-12-18T03:45:37;113.55;;;31.25;;
37753;SDS011;23596;52.520;13.464;2022-12-18T03:48:15;116.65;;;30.77;;
37753;SDS011;23596;52.520;13.464;2022-12-18T03:50:59;124.07;;;31.08;;
37753;SDS011;23596;52.520;13.464;2022-12-18T03:53:39;114.07;;;30.05;;
37753;SDS011;23596;52.520;13.464;2022-12-18T03:56:17;111.68;;;29.58;;
37753;SDS011;23596;52.520;13.464;2022-12-18T03:58:44;115.75;;;30.52;;
37753;SDS011;23596;52.520;13.464;2022-12-18T04:01:12;106.68;;;31.25;;
37753;SDS011;23596;52.520;13.464;2022-12-18T04:03:40;102.13;;;30.20;;
37753;SDS011;23596;52.520;13.464;2022-12-18T04:06:07;106.15;;;30.10;;
37753;SDS011;23596;52.520;13.464;2022-12-18T04:08:33;101.72;;;28.80;;
37753;SDS011;23596;52.520;13.464;2022-12-18T04:13:29;96.75;;;26.88;;
37753;SDS011;23596;52.520;13.464;2022-12-18T04:15:58;100.10;;;27.85;;
37753;SDS011;23596;52.520;13.464;2022-12-18T04:18:23;84.63;;;24.83;;
37753;SDS011;23596;52.520;13.464;2022-12-18T04:20:49;99.47;;;28.67;;
37753;SDS011;23596;52.520;13.464;2022-12-18T04:23:15;89.43;;;26.50;;
37753;SDS011;23596;52.520;13.464;2022-12-18T04:25:40;97.10;;;28.33;;
37753;SDS011;23596;52.520;13.464;2022-12-18T04:28:06;99.67;;;26.40;;
37753;SDS011;23596;52.520;13.464;2022-12-18T04:30:32;100.78;;;28.23;;
37753;SDS011;23596;52.520;13.464;2022-12-18T04:32:57;93.97;;;26.10;;
37753;SDS011;23596;52.520;13.464;2022-12-18T04:35:23;93.73;;;25.53;;
37753;SDS011;23596;52.520;13.464;2022-12-18T04:37:48;117.20;;;27.20;;
37753;SDS011;23596;52.520;13.464;2022-12-18T04:40:14;97.83;;;25.57;;
37753;SDS011;23596;52.520;13.464;2022-12-18T04:42:40;92.27;;;26.43;;
37753;SDS011;23596;52.520;13.464;2022-12-18T04:45:06;99.75;;;25.63;;
37753;SDS011;23596;52.520;13.464;2022-12-18T04:47:32;94.18;;;26.33;;
37753;SDS011;23596;52.520;13.464;2022-12-18T04:49:58;96.80;;;25.80;;
37753;SDS011;23596;52.520;13.464;2022-12-18T04:52:23;97.30;;;26.00;;
37753;SDS011;23596;52.520;13.464;2022-12-18T04:54:49;87.93;;;24.38;;
37753;SDS011;23596;52.520;13.464;2022-12-18T04:57:15;87.20;;;25.25;;
37753;SDS011;23596;52.520;13.464;2022-12-18T04:59:40;98.77;;;25.73;;
37753;SDS011;23596;52.520;13.464;2022-12-18T05:02:06;87.17;;;24.93;;
37753;SDS011;23596;52.520;13.464;2022-12-18T05:04:31;91.65;;;25.50;;
37753;SDS011;23596;52.520;13.464;2022-12-18T05:06:57;92.97;;;25.27;;
37753;SDS011;23596;52.520;13.464;2022-12-18T05:09:23;103.37;;;27.07;;
37753;SDS011;23596;52.520;13.464;2022-12-18T05:11:48;97.70;;;26.20;;
37753;SDS011;23596;52.520;13.464;2022-12-18T05:14:14;90.90;;;25.23;;
37753;SDS011;23596;52.520;13.464;2022-12-18T05:16:40;89.27;;;23.97;;
37753;SDS011;23596;52.520;13.464;2022-12-18T05:19:06;97.78;;;25.67;;
37753;SDS011;23596;52.520;13.464;2022-12-18T05:21:31;109.05;;;27.25;;
37753;SDS011;23596;52.520;13.464;2022-12-18T05:23:57;99.57;;;25.63;;
37753;SDS011;23596;52.520;13.464;2022-12-18T05:26:22;105.88;;;27.45;;
37753;SDS011;23596;52.520;13.464;2022-12-18T05:28:48;107.65;;;27.45;;
37753;SDS011;23596;52.520;13.464;2022-12-18T05:31:14;111.00;;;27.93;;
37753;SDS011;23596;52.520;13.464;2022-12-18T05:33:39;108.18;;;28.08;;
37753;SDS011;23596;52.520;13.464;2022-12-18T05:36:06;112.38;;;29.02;;
37753;SDS011;23596;52.520;13.464;2022-12-18T05:38:33;135.30;;;30.20;;
37753;SDS011;23596;52.520;13.464;2022-12-18T05:41:01;110.43;;;28.38;;
37753;SDS011;23596;52.520;13.464;2022-12-18T05:43:27;111.00;;;28.05;;
37753;SDS011;23596;52.520;13.464;2022-12-18T05:45:54;122.40;;;29.65;;
37753;SDS011;23596;52.520;13.464;2022-12-18T05:48:19;133.77;;;30.65;;
37753;SDS011;23596;52.520;13.464;2022-12-18T05:50:46;134.10;;;31.10;;
37753;SDS011;23596;52.520;13.464;2022-12-18T05:53:16;120.90;;;31.75;;
37753;SDS011;23596;52.520;13.464;2022-12-18T05:55:44;146.63;;;31.77;;
37753;SDS011;23596;52.520;13.464;2022-12-18T05:58:11;136.38;;;32.92;;
37753;SDS011;23596;52.520;13.464;2022-12-18T06:00:38;136.07;;;32.55;;
37753;SDS011;23596;52.520;13.464;2022-12-18T06:03:07;134.88;;;33.90;;
37753;SDS011;23596;52.520;13.464;2022-12-18T06:05:37;137.00;;;33.47;;
37753;SDS011;23596;52.520;13.464;2022-12-18T06:08:04;140.00;;;35.08;;
37753;SDS011;23596;52.520;13.464;2022-12-18T06:10:30;148.80;;;34.65;;
37753;SDS011;23596;52.520;13.464;2022-12-18T06:12:56;132.82;;;34.10;;
37753;SDS011;23596;52.520;13.464;2022-12-18T06:15:22;135.17;;;35.80;;
37753;SDS011;23596;52.520;13.464;2022-12-18T06:17:47;137.57;;;34.00;;
37753;SDS011;23596;52.520;13.464;2022-12-18T06:20:13;144.20;;;34.50;;
37753;SDS011;23596;52.520;13.464;2022-12-18T06:22:38;145.90;;;32.87;;
37753;SDS011;23596;52.520;13.464;2022-12-18T06:25:04;140.90;;;34.50;;
37753;SDS011;23596;52.520;13.464;2022-12-18T06:29:58;126.95;;;31.17;;
37753;SDS011;23596;52.520;13.464;2022-12-18T06:32:24;134.77;;;32.58;;
37753;SDS011;23596;52.520;13.464;2022-12-18T06:34:49;126.87;;;33.20;;
37753;SDS011;23596;52.520;13.464;2022-12-18T06:37:15;118.95;;;32.70;;
37753;SDS011;23596;52.520;13.464;2022-12-18T06:39:41;125.37;;;33.73;;
37753;SDS011;23596;52.520;13.464;2022-12-18T06:42:06;125.83;;;31.67;;
37753;SDS011;23596;52.520;13.464;2022-12-18T06:44:32;113.00;;;30.43;;
37753;SDS011;23596;52.520;13.464;2022-12-18T06:46:57;120.93;;;29.97;;
37753;SDS011;23596;52.520;13.464;2022-12-18T06:49:23;120.73;;;31.47;;
37753;SDS011;23596;52.520;13.464;2022-12-18T06:51:49;120.18;;;32.17;;
37753;SDS011;23596;52.520;13.464;2022-12-18T06:54:14;109.33;;;29.77;;
37753;SDS011;23596;52.520;13.464;2022-12-18T06:56:40;117.97;;;31.17;;
37753;SDS011;23596;52.520;13.464;2022-12-18T06:59:05;124.30;;;30.97;;
37753;SDS011;23596;52.520;13.464;2022-12-18T07:01:31;116.70;;;29.90;;
37753;SDS011;23596;52.520;13.464;2022-12-18T07:03:57;142.70;;;32.33;;
37753;SDS011;23596;52.520;13.464;2022-12-18T07:06:24;125.13;;;30.15;;
37753;SDS011;23596;52.520;13.464;2022-12-18T07:08:50;122.72;;;32.47;;
37753;SDS011;23596;52.520;13.464;2022-12-18T07:13:43;121.10;;;30.92;;
37753;SDS011;23596;52.520;13.464;2022-12-18T07:16:11;133.93;;;32.97;;
37753;SDS011;23596;52.520;13.464;2022-12-18T07:18:39;136.02;;;33.85;;
37753;SDS011;23596;52.520;13.464;2022-12-18T07:21:05;131.18;;;34.65;;
37753;SDS011;23596;52.520;13.464;2022-12-18T07:23:32;123.80;;;33.55;;
37753;SDS011;23596;52.520;13.464;2022-12-18T07:26:05;128.30;;;33.70;;
37753;SDS011;23596;52.520;13.464;2022-12-18T07:28:33;124.90;;;33.05;;
37753;SDS011;23596;52.520;13.464;2022-12-18T07:31:07;130.10;;;34.22;;
37753;SDS011;23596;52.520;13.464;2022-12-18T07:33:34;117.53;;;32.75;;
37753;SDS011;23596;52.520;13.464;2022-12-18T07:36:00;118.28;;;33.45;;
37753;SDS011;23596;52.520;13.464;2022-12-18T07:38:28;117.88;;;32.63;;
37753;SDS011;23596;52.520;13.464;2022-12-18T07:40:54;118.68;;;29.25;;
37753;SDS011;23596;52.520;13.464;2022-12-18T07:43:20;116.00;;;31.33;;
37753;SDS011;23596;52.520;13.464;2022-12-18T07:45:48;111.83;;;32.17;;
37753;SDS011;23596;52.520;13.464;2022-12-18T07:48:14;131.35;;;33.75;;
37753;SDS011;23596;52.520;13.464;2022-12-18T07:50:40;124.80;;;33.27;;
37753;SDS011;23596;52.520;13.464;2022-12-18T07:53:05;113.93;;;30.93;;
37753;SDS011;23596;52.520;13.464;2022-12-18T07:55:31;131.90;;;31.67;;
37753;SDS011;23596;52.520;13.464;2022-12-18T07:57:57;123.07;;;33.42;;
37753;SDS011;23596;52.520;13.464;2022-12-18T08:00:26;116.60;;;31.95;;
37753;SDS011;23596;52.520;13.464;2022-12-18T08:02:51;131.70;;;33.67;;
37753;SDS011;23596;52.520;13.464;2022-12-18T08:05:17;119.10;;;31.50;;
37753;SDS011;23596;52.520;13.464;2022-12-18T08:07:42;109.50;;;31.13;;
37753;SDS011;23596;52.520;13.464;2022-12-18T08:10:08;118.63;;;34.50;;
37753;SDS011;23596;52.520;13.464;2022-12-18T08:12:34;117.57;;;33.55;;
37753;SDS011;23596;52.520;13.464;2022-12-18T08:14:59;95.43;;;28.43;;
37753;SDS011;23596;52.520;13.464;2022-12-18T08:17:25;107.47;;;29.33;;
37753;SDS011;23596;52.520;13.464;2022-12-18T08:19:51;113.83;;;29.53;;
37753;SDS011;23596;52.520;13.464;2022-12-18T08:22:16;100.70;;;29.67;;
37753;SDS011;23596;52.520;13.464;2022-12-18T08:24:42;98.95;;;26.75;;
37753;SDS011;23596;52.520;13.464;2022-12-18T08:27:07;100.13;;;29.03;;
37753;SDS011;23596;52.520;13.464;2022-12-18T08:29:33;86.60;;;25.43;;
37753;SDS011;23596;52.520;13.464;2022-12-18T08:31:59;97.83;;;28.03;;
37753;SDS011;23596;52.520;13.464;2022-12-18T08:34:24;88.70;;;25.37;;
37753;SDS011;23596;52.520;13.464;2022-12-18T08:36:50;99.70;;;26.80;;
37753;SDS011;23596;52.520;13.464;2022-12-18T08:39:15;91.07;;;28.07;;
37753;SDS011;23596;52.520;13.464;2022-12-18T08:41:41;91.90;;;25.73;;
37753;SDS011;23596;52.520;13.464;2022-12-18T08:44:07;86.57;;;25.10;;
37753;SDS011;23596;52.520;13.464;2022-12-18T08:46:51;110.57;;;27.25;;
37753;SDS011;23596;52.520;13.464;2022-12-18T08:49:17;113.97;;;30.25;;
37753;SDS011;23596;52.520;13.464;2022-12-18T08:51:42;105.10;;;26.67;;
37753;SDS011;23596;52.520;13.464;2022-12-18T08:54:10;93.50;;;28.08;;
37753;SDS011;23596;52.520;13.464;2022-12-18T08:56:36;90.93;;;27.15;;
37753;SDS011;23596;52.520;13.464;2022-12-18T08:59:02;104.03;;;30.77;;
37753;SDS011;23596;52.520;13.464;2022-12-18T09:01:29;91.30;;;27.42;;
37753;SDS011;23596;52.520;13.464;2022-12-18T09:03:55;101.03;;;26.58;;
37753;SDS011;23596;52.520;13.464;2022-12-18T09:06:21;100.55;;;28.27;;
37753;SDS011;23596;52.520;13.464;2022-12-18T09:08:47;101.28;;;27.17;;
37753;SDS011;23596;52.520;13.464;2022-12-18T09:11:15;93.85;;;26.77;;
37753;SDS011;23596;52.520;13.464;2022-12-18T09:13:45;92.03;;;28.38;;
37753;SDS011;23596;52.520;13.464;2022-12-18T09:16:10;106.20;;;28.30;;
37753;SDS011;23596;52.520;13.464;2022-12-18T09:18:36;98.63;;;27.03;;
37753;SDS011;23596;52.520;13.464;2022-12-18T09:21:18;94.53;;;28.07;;
37753;SDS011;23596;52.520;13.464;2022-12-18T09:23:52;94.53;;;26.67;;
37753;SDS011;23596;52.520;13.464;2022-12-18T09:26:20;88.20;;;27.65;;
37753;SDS011;23596;52.520;13.464;2022-12-18T09:28:46;96.50;;;28.75;;
37753;SDS011;23596;52.520;13.464;2022-12-18T09:31:12;94.85;;;27.00;;
37753;SDS011;23596;52.520;13.464;2022-12-18T09:33:38;109.80;;;28.98;;
37753;SDS011;23596;52.520;13.464;2022-12-18T09:36:05;107.30;;;27.85;;
37753;SDS011;23596;52.520;13.464;2022-12-18T09:38:32;112.75;;;29.83;;
37753;SDS011;23596;52.520;13.464;2022-12-18T09:41:05;97.05;;;26.92;;
37753;SDS011;23596;52.520;13.464;2022-12-18T09:43:44;105.18;;;28.08;;
37753;SDS011;23596;52.520;13.464;2022-12-18T09:46:48;104.20;;;28.33;;
37753;SDS011;23596;52.520;13.464;2022-12-18T09:49:10;102.68;;;30.48;;
37753;SDS011;23596;52.520;13.464;2022-12-18T09:51:40;99.70;;;28.77;;
37753;SDS011;23596;52.520;13.464;2022-12-18T09:54:16;100.95;;;28.90;;
37753;SDS011;23596;52.520;13.464;2022-12-18T09:56:47;111.50;;;30.88;;
37753;SDS011;23596;52.520;13.464;2022-12-18T09:59:27;104.30;;;30.90;;
37753;SDS011;23596;52.520;13.464;2022-12-18T10:01:59;116.53;;;30.27;;
37753;SDS011;23596;52.520;13.464;2022-12-18T10:04:24;122.47;;;31.77;;
37753;SDS011;23596;52.520;13.464;2022-12-18T10:07:19;115.03;;;30.58;;
37753;SDS011;23596;52.520;13.464;2022-12-18T10:09:51;115.25;;;30.15;;
37753;SDS011;23596;52.520;13.464;2022-12-18T10:25:35;112.22;;;29.17;;
37753;SDS011;23596;52.520;13.464;2022-12-18T10:28:08;124.03;;;31.90;;
37753;SDS011;23596;52.520;13.464;2022-12-18T10:30:38;114.25;;;30.38;;
37753;SDS011;23596;52.520;13.464;2022-12-18T10:35:29;110.88;;;31.02;;
37753;SDS011;23596;52.520;13.464;2022-12-18T10:37:59;117.07;;;32.33;;
37753;SDS011;23596;52.520;13.464;2022-12-18T10:40:30;104.80;;;29.95;;
37753;SDS011;23596;52.520;13.464;2022-12-18T10:43:10;122.10;;;31.90;;
37753;SDS011;23596;52.520;13.464;2022-12-18T10:45:37;113.10;;;31.27;;
37753;SDS011;23596;52.520;13.464;2022-12-18T10:48:03;125.67;;;31.50;;
37753;SDS011;23596;52.520;13.464;2022-12-18T10:50:33;116.10;;;31.95;;
37753;SDS011;23596;52.520;13.464;2022-12-18T10:53:01;124.82;;;32.15;;
37753;SDS011;23596;52.520;13.464;2022-12-18T10:55:33;125.78;;;30.98;;
37753;SDS011;23596;52.520;13.464;2022-12-18T11:01:14;104.53;;;30.80;;
37753;SDS011;23596;52.520;13.464;2022-12-18T11:03:42;108.85;;;30.38;;
37753;SDS011;23596;52.520;13.464;2022-12-18T11:06:13;111.25;;;31.20;;
37753;SDS011;23596;52.520;13.464;2022-12-18T11:08:41;95.78;;;28.08;;
37753;SDS011;23596;52.520;13.464;2022-12-18T11:11:21;91.30;;;28.42;;
37753;SDS011;23596;52.520;13.464;2022-12-18T11:16:33;92.25;;;28.33;;
37753;SDS011;23596;52.520;13.464;2022-12-18T11:21:45;95.40;;;28.48;;
37753;SDS011;23596;52.520;13.464;2022-12-18T11:24:26;101.07;;;28.43;;
37753;SDS011;23596;52.520;13.464;2022-12-18T11:26:53;98.63;;;27.10;;
37753;SDS011;23596;52.520;13.464;2022-12-18T11:29:23;89.07;;;28.05;;
37753;SDS011;23596;52.520;13.464;2022-12-18T11:32:08;101.47;;;27.08;;
37753;SDS011;23596;52.520;13.464;2022-12-18T11:34:45;90.10;;;25.70;;
37753;SDS011;23596;52.520;13.464;2022-12-18T11:37:14;93.63;;;28.25;;
37753;SDS011;23596;52.520;13.464;2022-12-18T11:39:58;99.97;;;26.92;;
37753;SDS011;23596;52.520;13.464;2022-12-18T11:42:39;85.30;;;24.75;;
37753;SDS011;23596;52.520;13.464;2022-12-18T11:45:17;80.97;;;24.70;;
37753;SDS011;23596;52.520;13.464;2022-12-18T11:48:04;92.32;;;28.20;;
37753;SDS011;23596;52.520;13.464;2022-12-18T11:53:10;91.07;;;28.05;;
37753;SDS011;23596;52.520;13.464;2022-12-18T11:55:41;100.88;;;29.02;;
37753;SDS011;23596;52.520;13.464;2022-12-18T12:12:06;93.13;;;24.63;;
37753;SDS011;23596;52.520;13.464;2022-12-18T12:14:59;81.93;;;24.20;;
37753;SDS011;23596;52.520;13.464;2022-12-18T12:17:38;80.45;;;24.13;;
37753;SDS011;23596;52.520;13.464;2022-12-18T12:22:55;85.80;;;25.92;;
37753;SDS011;23596;52.520;13.464;2022-12-18T12:25:38;67.93;;;23.17;;
37753;SDS011;23596;52.520;13.464;2022-12-18T12:39:01;77.75;;;24.00;;
37753;SDS011;23596;52.520;13.464;2022-12-18T12:41:33;87.13;;;24.80;;
37753;SDS011;23596;52.520;13.464;2022-12-18T12:44:20;87.63;;;23.35;;
37753;SDS011;23596;52.520;13.464;2022-12-18T12:46:50;86.55;;;25.08;;
37753;SDS011;23596;52.520;13.464;2022-12-18T12:49:20;92.65;;;24.65;;
37753;SDS011;23596;52.520;13.464;2022-12-18T12:51:58;92.63;;;24.85;;
37753;SDS011;23596;52.520;13.464;2022-12-18T12:54:29;79.22;;;23.42;;
37753;SDS011;23596;52.520;13.464;2022-12-18T13:02:18;86.75;;;26.60;;
37753;SDS011;23596;52.520;13.464;2022-12-18T13:05:04;77.15;;;23.90;;
37753;SDS011;23596;52.520;13.464;2022-12-18T13:08:05;86.05;;;25.08;;
37753;SDS011;23596;52.520;13.464;2022-12-18T13:15:38;83.10;;;24.40;;
37753;SDS011;23596;52.520;13.464;2022-12-18T13:20:51;74.75;;;24.63;;
37753;SDS011;23596;52.520;13.464;2022-12-18T13:23:46;83.50;;;27.10;;
37753;SDS011;23596;52.520;13.464;2022-12-18T13:36:10;82.80;;;28.88;;
37753;SDS011;23596;52.520;13.464;2022-12-18T13:38:47;98.72;;;33.28;;
37753;SDS011;23596;52.520;13.464;2022-12-18T13:41:32;102.25;;;33.50;;
37753;SDS011;23596;52.520;13.464;2022-12-18T13:44:11;94.47;;;29.50;;
37753;SDS011;23596;52.520;13.464;2022-12-18T13:46:57;84.47;;;29.23;;
37753;SDS011;23596;52.520;13.464;2022-12-18T13:52:02;112.13;;;36.03;;
37753;SDS011;23596;52.520;13.464;2022-12-18T13:54:35;91.65;;;33.45;;
37753;SDS011;23596;52.520;13.464;2022-12-18T13:57:04;100.05;;;34.60;;
37753;SDS011;23596;52.520;13.464;2022-12-18T13:59:38;102.93;;;35.95;;
37753;SDS011;23596;52.520;13.464;2022-12-18T14:02:14;94.75;;;32.10;;
37753;SDS011;23596;52.520;13.464;2022-12-18T14:04:44;84.78;;;28.52;;
37753;SDS011;23596;52.520;13.464;2022-12-18T14:07:12;83.32;;;29.67;;
37753;SDS011;23596;52.520;13.464;2022-12-18T14:09:43;80.35;;;27.58;;
37753;SDS011;23596;52.520;13.464;2022-12-18T14:12:25;81.95;;;28.05;;
37753;SDS011;23596;52.520;13.464;2022-12-18T14:15:26;83.25;;;27.90;;
37753;SDS011;23596;52.520;13.464;2022-12-18T14:20:45;76.05;;;26.27;;
37753;SDS011;23596;52.520;13.464;2022-12-18T14:28:57;86.18;;;27.75;;
37753;SDS011;23596;52.520;13.464;2022-12-18T14:31:28;84.28;;;28.50;;
37753;SDS011;23596;52.520;13.464;2022-12-18T14:33:55;76.93;;;26.02;;
37753;SDS011;23596;52.520;13.464;2022-12-18T14:36:22;74.13;;;24.73;;
37753;SDS011;23596;52.520;13.464;2022-12-18T14:38:53;64.45;;;22.60;;
37753;SDS011;23596;52.520;13.464;2022-12-18T14:41:20;65.72;;;21.35;;
37753;SDS011;23596;52.520;13.464;2022-12-18T14:43:48;63.67;;;23.10;;
37753;SDS011;23596;52.520;13.464;2022-12-18T14:46:28;53.28;;;20.45;;
37753;SDS011;23596;52.520;13.464;2022-12-18T14:48:57;69.20;;;25.25;;
37753;SDS011;23596;52.520;13.464;2022-12-18T14:51:31;67.50;;;24.27;;
37753;SDS011;23596;52.520;13.464;2022-12-18T14:54:02;79.90;;;27.15;;
37753;SDS011;23596;52.520;13.464;2022-12-18T14:56:36;72.93;;;24.15;;
37753;SDS011;23596;52.520;13.464;2022-12-18T14:59:16;75.65;;;26.15;;
37753;SDS011;23596;52.520;13.464;2022-12-18T15:01:46;68.20;;;24.57;;
37753;SDS011;23596;52.520;13.464;2022-12-18T15:09:30;70.50;;;23.88;;
37753;SDS011;23596;52.520;13.464;2022-12-18T15:11:57;72.53;;;25.15;;
37753;SDS011;23596;52.520;13.464;2022-12-18T15:16:58;64.15;;;23.05;;
37753;SDS011;23596;52.520;13.464;2022-12-18T15:19:32;69.32;;;25.33;;
37753;SDS011;23596;52.520;13.464;2022-12-18T15:22:02;67.32;;;25.25;;
37753;SDS011;23596;52.520;13.464;2022-12-18T15:24:29;71.32;;;26.73;;
37753;SDS011;23596;52.520;13.464;2022-12-18T15:26:57;73.28;;;26.35;;
37753;SDS011;23596;52.520;13.464;2022-12-18T15:29:23;68.43;;;24.23;;
37753;SDS011;23596;52.520;13.464;2022-12-18T15:32:10;79.30;;;28.90;;
37753;SDS011;23596;52.520;13.464;2022-12-18T15:34:43;75.53;;;25.42;;
37753;SDS011;23596;52.520;13.464;2022-12-18T15:37:09;68.53;;;25.07;;
37753;SDS011;23596;52.520;13.464;2022-12-18T15:39:35;66.70;;;22.30;;
37753;SDS011;23596;52.520;13.464;2022-12-18T15:42:01;64.17;;;21.27;;
37753;SDS011;23596;52.520;13.464;2022-12-18T15:44:45;64.55;;;20.55;;
37753;SDS011;23596;52.520;13.464;2022-12-18T15:47:11;64.18;;;20.10;;
37753;SDS011;23596;52.520;13.464;2022-12-18T15:49:38;60.03;;;22.25;;
37753;SDS011;23596;52.520;13.464;2022-12-18T15:52:04;67.90;;;22.67;;
37753;SDS011;23596;52.520;13.464;2022-12-18T15:54:30;65.10;;;19.77;;
37753;SDS011;23596;52.520;13.464;2022-12-18T15:57:14;52.45;;;19.30;;
37753;SDS011;23596;52.520;13.464;2022-12-18T15:59:53;70.95;;;25.60;;
37753;SDS011;23596;52.520;13.464;2022-12-18T16:02:21;68.40;;;27.38;;
37753;SDS011;23596;52.520;13.464;2022-12-18T16:04:47;69.60;;;24.45;;
37753;SDS011;23596;52.520;13.464;2022-12-18T16:07:14;65.85;;;22.52;;
37753;SDS011;23596;52.520;13.464;2022-12-18T16:09:39;66.77;;;21.30;;
37753;SDS011;23596;52.520;13.464;2022-12-18T16:12:06;62.33;;;22.93;;
37753;SDS011;23596;52.520;13.464;2022-12-18T16:14:38;64.95;;;23.58;;
37753;SDS011;23596;52.520;13.464;2022-12-18T16:17:05;68.50;;;22.87;;
37753;SDS011;23596;52.520;13.464;2022-12-18T16:19:33;77.97;;;25.98;;
37753;SDS011;23596;52.520;13.464;2022-12-18T16:21:59;68.60;;;25.40;;
37753;SDS011;23596;52.520;13.464;2022-12-18T16:24:26;66.13;;;24.40;;
37753;SDS011;23596;52.520;13.464;2022-12-18T16:26:53;74.50;;;25.10;;
37753;SDS011;23596;52.520;13.464;2022-12-18T16:29:20;75.63;;;26.40;;
37753;SDS011;23596;52.520;13.464;2022-12-18T16:31:52;71.40;;;23.10;;
37753;SDS011;23596;52.520;13.464;2022-12-18T16:36:48;63.22;;;23.38;;
37753;SDS011;23596;52.520;13.464;2022-12-18T16:39:15;68.03;;;24.48;;